New York, NY

2:01 PM EDT on October 21, 2014 (GMT -0400)
Murray Hill | Change Station
CLOSE
Current Station
Personal Weather Station
Location: New York, NY
Elevation: 98 ft
Nearby Weather Stations

Elev 98 ft 40.75 °N, 73.98 °W | Updated 4 seconds ago

Overcast
Overcast
63.7 °F
Feels Like 63.7 °F
N
8.0
Wind Variable Wind from SSE
Gusts 11.0 mph

Today
High -- | Low -- °F
--% Chance of Precip.
Yesterday
High -- | Low -- °F
Precip. -- in
7:13 AM 6:06 PM
Waning Crescent, 5% visible
Pressure 29.84 in
Visibility 10.0 miles
Clouds Scattered Clouds 4500 ft
Mostly Cloudy 7000 ft
Overcast 9000 ft
Dew Point 52 °F
Humidity 67%
Rainfall 0.00 in
Snow Depth Not available.
UV 1 out of 12
Pollen .70 out of 12
Ozone Good
PM2.5 Good
Flu Activity Sporadic
METAR KNYC 211751Z AUTO VRB03KT 10SM SCT045 BKN070 OVC090 18/09 A2986 RMK AO2 SLP103 T01830094 10189 20133 58016 $

More Conditions Fewer Conditions

Pressure 29.84 in
Visibility 10.0 miles
Clouds Scattered Clouds 4500 ft
Mostly Cloudy 7000 ft
Overcast 9000 ft
Dew Point 52 °F
Humidity 67%
Rainfall 0.00 in
Snow Depth Not available.
UV 1 out of 12
Pollen .70 out of 12
Ozone Good
PM2.5 Good
Flu Activity Sporadic
METAR KNYC 211751Z AUTO VRB03KT 10SM SCT045 BKN070 OVC090 18/09 A2986 RMK AO2 SLP103 T01830094 10189 20133 58016 $

More Conditions Fewer Conditions

10-Day Weather Forecast

Almanac

Astronomy

Oct. 21, 2014 Rise Set
Actual Time 7:13 AM EDT 6:06 PM EDT
Civil Twilight 6:45 AM EDT 6:34 PM EDT
Nautical Twilight 6:13 AM EDT 7:06 PM EDT
Astronomical Twilight 5:42 AM EDT 7:38 PM EDT
Moon 4:54 AM EDT 5:00 PM EDT
Length of Visible Light 11h 48m
Length of Day
10h 53m
Tomorrow will be 2m 32s shorter.
Waning Crescent, 5% of the Moon is Illuminated
Today
Waning Crescent
Oct 23
New
Oct 30
First Quarter
Nov 6
Full
Nov 14
Last Quarter

Today's Extremes

State Highs State Lows

Community

WunderPhotos

Upload Photos

1,763,737 photos uploaded!

Nearby

Air Quality

  Air Quality AQ Index Pollutant
Yesterday Good
OZONE
Yesterday Good
PM2.5
Current Good
PM2.5
Current Good
OZONE
Tuesday Good
PM2.5
Wednesday Good
PM2.5

Snow Depth

Station Depth Elevation
No new snow has been reported.

Earthquake Activity

City Distance Mag. Time & Date
No recent earthquake activity has been reported nearby.
Minimum magnitude displayed is 2.5.

Coastal Water Temperatures

Place Temperature
Sandy Hook, NJ 60.1 °F
The Battery, NY 64.0 °F
Kings Point, NY 61.0 °F

Nearby Weather Stations